createdAt,value
2023-01-01T00:00:24.583Z,98432.34
2023-01-01T00:02:52.409Z,98428.91
2023-01-01T00:05:19.185Z,98438.78
2023-01-01T00:07:46.478Z,98434.03
2023-01-01T00:10:13.938Z,98428.16
2023-01-01T00:12:41.320Z,98421.06
2023-01-01T00:15:08.592Z,98409.81
2023-01-01T00:17:38.886Z,98411.75
2023-01-01T00:20:07.438Z,98464.72
2023-01-01T00:22:53.890Z,98481.56
2023-01-01T00:25:22.149Z,98471.56
2023-01-01T00:27:49.837Z,98486.75
2023-01-01T00:30:16.713Z,98496.19
2023-01-01T00:32:54.730Z,98491.66
2023-01-01T00:35:23.407Z,98500.91
2023-01-01T00:37:51.249Z,98485.72
2023-01-01T00:40:18.644Z,98475.81
2023-01-01T00:42:45.815Z,98479.38
2023-01-01T00:45:20.619Z,98486.22
2023-01-01T00:47:51.278Z,98495.66
2023-01-01T00:50:18.955Z,98490.13
2023-01-01T00:52:45.922Z,98500.69
2023-01-01T00:55:13.251Z,98507.69
2023-01-01T00:57:40.142Z,98523.34
2023-01-01T01:00:09.017Z,98531.78
2023-01-01T01:02:36.430Z,98546.91
2023-01-01T01:05:06.649Z,98547.25
2023-01-01T01:07:36.012Z,98545.59
2023-01-01T01:10:03.812Z,98550.44
2023-01-01T01:12:30.685Z,98550.69
2023-01-01T01:14:58.332Z,98559.13
2023-01-01T01:17:25.747Z,98576.63
2023-01-01T01:19:53.333Z,98563.44
2023-01-01T01:22:28.029Z,98562.44
2023-01-01T01:24:56.785Z,98568.81
2023-01-01T01:27:24.094Z,98558.75
2023-01-01T01:29:51.984Z,98573.19
2023-01-01T01:32:19.619Z,98577.38
2023-01-01T01:34:47.048Z,98585.50
2023-01-01T01:37:14.749Z,98589.97
2023-01-01T01:39:43.776Z,98582.84
2023-01-01T01:42:16.979Z,98585.34
2023-01-01T01:44:57.151Z,98581.06
2023-01-01T01:47:29.536Z,98583.81
2023-01-01T01:50:02.674Z,98577.19
2023-01-01T01:52:33.074Z,98585.38
2023-01-01T01:55:04.535Z,98595.47
2023-01-01T01:57:33.299Z,98598.00
2023-01-01T02:00:08.636Z,98608.78
2023-01-01T02:02:44.732Z,98606.56
2023-01-01T02:05:12.342Z,98615.56
2023-01-01T02:07:40.398Z,98612.06
2023-01-01T02:10:09.835Z,98616.44
2023-01-01T02:12:37.421Z,98620.34
2023-01-01T02:15:06.063Z,98627.81
2023-01-01T02:17:39.644Z,98627.09
2023-01-01T02:20:36.921Z,98631.84
2023-01-01T02:23:30.660Z,98646.75
2023-01-01T02:26:15.527Z,98651.53
2023-01-01T02:28:53.287Z,98658.25
2023-01-01T02:31:26.597Z,98673.94
2023-01-01T02:33:58.347Z,98672.09
2023-01-01T02:36:28.765Z,98659.72
2023-01-01T02:38:59.218Z,98682.31
2023-01-01T02:41:30.499Z,98687.00
2023-01-01T02:46:31.994Z,98708.47
2023-01-01T02:49:04.687Z,98709.16
2023-01-01T02:51:45.572Z,98714.72
2023-01-01T02:54:25.795Z,98726.88
2023-01-01T02:57:03.514Z,98730.97
2023-01-01T02:59:41.078Z,98741.81
2023-01-01T03:02:19.766Z,98746.28
2023-01-01T03:05:03.499Z,98757.88
2023-01-01T03:07:41.298Z,98765.56
2023-01-01T03:10:16.052Z,98763.22
2023-01-01T03:12:48.269Z,98759.78
2023-01-01T03:15:24.134Z,98760.03
2023-01-01T03:17:59.025Z,98760.25
2023-01-01T03:20:31.454Z,98754.72
2023-01-01T03:23:03.918Z,98752.91
2023-01-01T03:25:34.461Z,98772.72
2023-01-01T03:28:06.652Z,98784.75
2023-01-01T03:30:38.715Z,98787.81
2023-01-01T03:33:12.906Z,98787.59
2023-01-01T03:35:47.044Z,98782.28
2023-01-01T03:38:19.846Z,98787.28
2023-01-01T03:40:51.766Z,98780.59
2023-01-01T03:43:28.044Z,98788.69
2023-01-01T03:46:00.851Z,98794.13
2023-01-01T03:48:27.756Z,98800.59
2023-01-01T03:51:06.436Z,98801.75
2023-01-01T03:53:39.733Z,98788.19
2023-01-01T03:56:16.402Z,98780.94
2023-01-01T03:58:50.096Z,98780.31
2023-01-01T04:01:26.376Z,98785.66
2023-01-01T04:03:54.906Z,98783.13
2023-01-01T04:06:22.267Z,98792.41
2023-01-01T04:08:54.242Z,98790.16
2023-01-01T04:11:25.419Z,98793.53
2023-01-01T04:13:52.706Z,98789.50
2023-01-01T04:16:21.784Z,98802.09
2023-01-01T04:18:49.073Z,98802.25
2023-01-01T04:21:16.608Z,98802.06
2023-01-01T04:23:44.119Z,98804.09
2023-01-01T04:26:13.459Z,98813.59
2023-01-01T04:28:41.185Z,98810.06
2023-01-01T04:31:09.242Z,98818.03
2023-01-01T04:33:37.914Z,98812.78
2023-01-01T04:36:06.203Z,98812.16
2023-01-01T04:38:34.323Z,98808.72
2023-01-01T04:41:02.308Z,98805.34
2023-01-01T04:43:29.819Z,98819.72
2023-01-01T04:45:57.222Z,98827.75
2023-01-01T04:48:25.168Z,98822.88
2023-01-01T04:50:58.000Z,98842.47
2023-01-01T04:53:26.324Z,98844.41
2023-01-01T04:55:53.592Z,98862.19
2023-01-01T04:58:21.069Z,98856.94
2023-01-01T05:00:53.459Z,98860.59
2023-01-01T05:03:21.154Z,98868.16
2023-01-01T05:05:51.327Z,98866.81
2023-01-01T05:08:20.461Z,98867.09
2023-01-01T05:10:48.072Z,98868.88
2023-01-01T05:13:15.489Z,98871.66
2023-01-01T05:15:42.771Z,98872.03
2023-01-01T05:18:10.773Z,98874.19
2023-01-01T05:20:38.038Z,98862.88
2023-01-01T05:23:05.358Z,98862.13
2023-01-01T05:25:34.206Z,98865.97
2023-01-01T05:28:01.637Z,98864.00
2023-01-01T05:30:28.933Z,98863.22
2023-01-01T05:32:56.255Z,98868.25
2023-01-01T05:35:26.527Z,98859.09
2023-01-01T05:37:54.535Z,98864.31
2023-01-01T05:40:21.914Z,98864.56
2023-01-01T05:42:50.639Z,98863.84
2023-01-01T05:45:18.159Z,98866.56
2023-01-01T05:47:45.614Z,98860.66
2023-01-01T05:52:38.730Z,98862.53
2023-01-01T05:55:07.163Z,98863.13
2023-01-01T05:57:34.067Z,98861.47
2023-01-01T06:00:02.821Z,98865.75
2023-01-01T06:02:31.689Z,98867.00
2023-01-01T06:05:01.575Z,98872.84
2023-01-01T06:07:28.712Z,98889.41
2023-01-01T06:09:55.993Z,98880.22
2023-01-01T06:12:22.773Z,98908.50
2023-01-01T06:14:50.120Z,98920.81
2023-01-01T06:17:19.139Z,98923.44
2023-01-01T06:19:46.427Z,98941.44
2023-01-01T06:22:13.693Z,98935.81
2023-01-01T06:24:41.256Z,98950.25
2023-01-01T06:27:08.929Z,98955.19
2023-01-01T06:29:36.248Z,98966.19
2023-01-01T06:32:03.913Z,98970.34
2023-01-01T06:34:32.724Z,98968.56
2023-01-01T06:37:04.703Z,98968.50
2023-01-01T06:39:34.515Z,98966.78
2023-01-01T06:42:01.778Z,98967.25
2023-01-01T06:44:29.040Z,98967.34
2023-01-01T06:46:55.737Z,98974.25
2023-01-01T06:49:22.922Z,98962.91
2023-01-01T06:51:51.707Z,98971.53
2023-01-01T06:54:18.637Z,98981.06
2023-01-01T06:56:45.855Z,98980.25
2023-01-01T06:59:13.773Z,98983.69
2023-01-01T07:01:44.376Z,98975.03
2023-01-01T07:04:14.067Z,98969.91
2023-01-01T07:06:42.599Z,98970.72
2023-01-01T07:09:11.859Z,98965.34
2023-01-01T07:11:39.109Z,98973.84
2023-01-01T07:14:06.685Z,98982.00
2023-01-01T07:16:34.260Z,98982.03
2023-01-01T07:19:01.416Z,98983.34
2023-01-01T07:21:31.644Z,98988.31
2023-01-01T07:24:00.491Z,98993.09
2023-01-01T07:26:30.663Z,98995.91
2023-01-01T07:29:04.608Z,99003.38
2023-01-01T07:31:33.907Z,99017.19
2023-01-01T07:34:01.549Z,99021.22
2023-01-01T07:36:28.993Z,99029.88
2023-01-01T07:38:56.002Z,99038.13
2023-01-01T07:41:23.368Z,99033.13
2023-01-01T07:43:52.176Z,99036.19
2023-01-01T07:46:19.441Z,99037.34
2023-01-01T07:48:46.922Z,99026.72
2023-01-01T07:51:14.267Z,99026.28
2023-01-01T07:53:41.672Z,99031.38
2023-01-01T07:56:09.516Z,99043.19
2023-01-01T07:58:39.981Z,99051.97
2023-01-01T08:01:10.470Z,99046.28
2023-01-01T08:03:37.401Z,99053.66
2023-01-01T08:06:08.429Z,99037.13
2023-01-01T08:08:35.912Z,99037.34
2023-01-01T08:11:04.068Z,99045.72
2023-01-01T08:13:31.864Z,99055.94
2023-01-01T08:15:59.270Z,99068.75
2023-01-01T08:18:28.522Z,99068.94
2023-01-01T08:20:55.887Z,99053.41
2023-01-01T08:23:23.837Z,99068.53
2023-01-01T08:25:51.040Z,99050.19
2023-01-01T08:28:18.816Z,99065.94
2023-01-01T08:30:46.469Z,99078.88
2023-01-01T08:33:13.991Z,99086.16
2023-01-01T08:35:45.581Z,99082.78
2023-01-01T08:38:16.610Z,99083.63
2023-01-01T08:40:43.896Z,99083.88
2023-01-01T08:43:11.308Z,99083.72
2023-01-01T08:45:39.304Z,99088.25
2023-01-01T08:48:07.127Z,99093.69
2023-01-01T08:50:34.463Z,99080.38
2023-01-01T08:53:03.177Z,99078.47
2023-01-01T08:55:30.609Z,99083.44
2023-01-01T08:57:57.779Z,99091.31
2023-01-01T09:00:25.132Z,99088.81
2023-01-01T09:02:52.588Z,99092.28
2023-01-01T09:05:20.048Z,99102.25
2023-01-01T09:07:47.738Z,99103.88
2023-01-01T09:10:17.628Z,99096.06
2023-01-01T09:12:45.340Z,99083.50
2023-01-01T09:15:16.031Z,99096.84
2023-01-01T09:17:43.525Z,99106.34
2023-01-01T09:20:11.083Z,99115.38
2023-01-01T09:22:38.443Z,99112.16
2023-01-01T09:25:06.345Z,99109.09
2023-01-01T09:27:34.979Z,99116.69
2023-01-01T09:30:02.763Z,99113.13
2023-01-01T09:32:30.324Z,99103.25
2023-01-01T09:34:57.515Z,99092.53
2023-01-01T09:37:25.206Z,99127.38
2023-01-01T09:39:52.586Z,99156.53
2023-01-01T09:42:29.438Z,99146.53
2023-01-01T09:45:18.819Z,99154.81
2023-01-01T09:47:47.850Z,99153.63
2023-01-01T09:50:18.953Z,99162.94
2023-01-01T09:52:52.922Z,99162.19
2023-01-01T09:55:27.014Z,99156.03
2023-01-01T09:57:55.925Z,99151.59
2023-01-01T10:00:24.817Z,99150.06
2023-01-01T10:03:07.304Z,99142.13
2023-01-01T10:05:49.529Z,99141.06
2023-01-01T10:08:29.343Z,99152.94
2023-01-01T10:11:05.573Z,99154.59
2023-01-01T10:13:38.326Z,99156.13
2023-01-01T10:16:16.002Z,99156.13
2023-01-01T10:18:48.617Z,99163.75
2023-01-01T10:21:19.571Z,99179.81
2023-01-01T10:23:50.075Z,99175.06
2023-01-01T10:26:19.411Z,99192.44
2023-01-01T10:28:55.185Z,99176.88
2023-01-01T10:31:31.830Z,99179.81
2023-01-01T10:33:58.987Z,99179.22
2023-01-01T10:36:27.147Z,99199.09
2023-01-01T10:38:54.394Z,99176.22
2023-01-01T10:41:21.796Z,99175.84
2023-01-01T10:43:50.097Z,99191.91
2023-01-01T10:46:29.444Z,99195.38
2023-01-01T10:49:11.192Z,99181.03
2023-01-01T10:51:43.944Z,99171.53
2023-01-01T10:54:33.048Z,99170.97
2023-01-01T10:57:12.830Z,99157.84
2023-01-01T10:59:43.096Z,99164.19
2023-01-01T11:02:20.558Z,99163.38
2023-01-01T11:04:49.862Z,99161.38
2023-01-01T11:07:31.063Z,99149.50
2023-01-01T11:10:04.197Z,99147.00
2023-01-01T11:13:04.307Z,99153.19
2023-01-01T11:15:30.901Z,99146.41
2023-01-01T11:18:05.950Z,99138.44
2023-01-01T11:20:36.781Z,99147.81
2023-01-01T11:23:21.144Z,99152.00
2023-01-01T11:26:04.661Z,99159.09
2023-01-01T11:28:33.424Z,99167.22
2023-01-01T11:31:08.069Z,99169.50
2023-01-01T11:33:39.319Z,99164.84
2023-01-01T11:36:08.397Z,99159.97
2023-01-01T11:38:35.948Z,99154.63
2023-01-01T11:41:06.362Z,99153.34
2023-01-01T11:43:40.115Z,99149.34
2023-01-01T11:46:11.088Z,99143.88
2023-01-01T11:48:42.858Z,99149.59
2023-01-01T11:51:29.916Z,99148.84
2023-01-01T11:54:23.122Z,99159.00
2023-01-01T11:56:55.076Z,99156.16
2023-01-01T11:59:27.966Z,99168.34
2023-01-01T12:01:59.541Z,99174.22
2023-01-01T12:04:36.198Z,99180.63
2023-01-01T12:07:08.034Z,99182.47
2023-01-01T12:09:42.558Z,99180.31
2023-01-01T12:12:15.975Z,99192.00
2023-01-01T12:14:51.853Z,99198.06
2023-01-01T12:17:25.008Z,99211.06
2023-01-01T12:19:59.682Z,99205.75
2023-01-01T12:22:28.500Z,99205.81
2023-01-01T12:24:56.960Z,99202.81
2023-01-01T12:27:47.763Z,99215.22
2023-01-01T12:30:21.592Z,99205.50
2023-01-01T12:33:12.947Z,99193.56
2023-01-01T12:36:15.432Z,99197.09
2023-01-01T12:39:18.019Z,99201.44
2023-01-01T12:41:56.918Z,99189.50
2023-01-01T12:44:36.872Z,99201.53
2023-01-01T12:47:15.847Z,99195.38
2023-01-01T12:50:08.182Z,99202.72
2023-01-01T12:52:51.387Z,99184.06
2023-01-01T12:55:41.547Z,99187.91
2023-01-01T12:58:15.105Z,99188.66
2023-01-01T13:00:46.358Z,99193.53
2023-01-01T13:03:21.552Z,99193.59
2023-01-01T13:05:52.661Z,99184.94
2023-01-01T13:08:20.078Z,99187.19
2023-01-01T13:10:49.037Z,99196.78
2023-01-01T13:13:19.031Z,99185.13
2023-01-01T13:15:49.235Z,99192.22
2023-01-01T13:18:23.298Z,99189.19
2023-01-01T13:21:03.897Z,99196.16
2023-01-01T13:23:51.758Z,99203.50
2023-01-01T13:26:42.981Z,99197.34
2023-01-01T13:29:43.378Z,99198.84
2023-01-01T13:32:13.944Z,99199.81
2023-01-01T13:35:04.757Z,99201.94
2023-01-01T13:37:41.853Z,99202.75
2023-01-01T13:40:47.504Z,99196.66
2023-01-01T13:43:30.474Z,99198.50
2023-01-01T13:46:12.359Z,99203.19
2023-01-01T13:49:13.197Z,99215.63
2023-01-01T13:52:06.259Z,99211.94
2023-01-01T13:55:18.415Z,99217.78
2023-01-01T13:58:08.047Z,99214.91
2023-01-01T14:00:49.634Z,99225.25
2023-01-01T14:03:19.358Z,99216.09
2023-01-01T14:05:50.346Z,99222.16
2023-01-01T14:08:31.703Z,99226.78
2023-01-01T14:11:01.932Z,99227.13
2023-01-01T14:13:30.740Z,99226.03
2023-01-01T14:16:00.206Z,99220.91
2023-01-01T14:18:33.964Z,99234.06
2023-01-01T14:21:02.213Z,99226.00
2023-01-01T14:23:34.714Z,99232.19
2023-01-01T14:26:06.500Z,99243.22
2023-01-01T14:28:35.559Z,99237.69
2023-01-01T14:31:10.771Z,99234.50
2023-01-01T14:33:38.864Z,99231.13
2023-01-01T14:36:14.714Z,99239.25
2023-01-01T14:38:45.877Z,99228.44
2023-01-01T14:41:19.572Z,99222.47
2023-01-01T14:43:49.675Z,99225.44
2023-01-01T14:46:19.679Z,99242.03
2023-01-01T14:48:49.501Z,99241.06
2023-01-01T14:51:22.280Z,99248.97
2023-01-01T14:53:54.083Z,99246.72
2023-01-01T14:56:27.036Z,99239.06
2023-01-01T14:58:58.470Z,99244.34
2023-01-01T15:01:27.216Z,99243.50
2023-01-01T15:03:59.246Z,99248.50
2023-01-01T15:06:27.112Z,99256.22
2023-01-01T15:08:56.255Z,99243.22
2023-01-01T15:11:28.766Z,99238.22
2023-01-01T15:13:59.595Z,99234.22
2023-01-01T15:16:27.156Z,99250.66
2023-01-01T15:18:54.320Z,99246.22
2023-01-01T15:21:34.654Z,99249.34
2023-01-01T15:24:09.913Z,99246.78
2023-01-01T15:26:42.360Z,99245.59
2023-01-01T15:29:14.819Z,99244.81
2023-01-01T15:31:45.183Z,99245.41
2023-01-01T15:34:22.249Z,99253.59
2023-01-01T15:36:50.521Z,99255.13
2023-01-01T15:39:19.622Z,99252.00
2023-01-01T15:41:48.130Z,99257.91
2023-01-01T15:44:27.808Z,99257.13
2023-01-01T15:47:05.532Z,99256.19
2023-01-01T15:49:33.061Z,99254.38
2023-01-01T15:52:05.315Z,99264.41
2023-01-01T15:54:39.190Z,99261.81
2023-01-01T15:57:17.862Z,99255.34
2023-01-01T15:59:45.762Z,99259.97
2023-01-01T16:02:17.490Z,99263.69
2023-01-01T16:04:48.740Z,99264.00
2023-01-01T16:07:19.746Z,99268.75
2023-01-01T16:09:51.985Z,99273.09
2023-01-01T16:12:24.546Z,99263.50
2023-01-01T16:14:51.703Z,99261.66
2023-01-01T16:17:20.697Z,99262.47
2023-01-01T16:19:48.843Z,99261.66
2023-01-01T16:22:17.595Z,99257.75
2023-01-01T16:24:45.162Z,99256.00
2023-01-01T16:27:14.503Z,99256.22
2023-01-01T16:29:43.378Z,99253.38
2023-01-01T16:32:17.342Z,99253.97
2023-01-01T16:34:44.942Z,99255.50
2023-01-01T16:37:11.716Z,99261.19
2023-01-01T16:39:39.243Z,99250.22
2023-01-01T16:42:09.981Z,99248.59
2023-01-01T16:44:41.599Z,99250.59
2023-01-01T16:47:08.773Z,99249.03
2023-01-01T16:49:37.431Z,99252.00
2023-01-01T16:52:05.086Z,99250.69
2023-01-01T16:54:32.303Z,99243.09
2023-01-01T16:56:59.147Z,99242.72
2023-01-01T16:59:26.701Z,99247.59
2023-01-01T17:01:55.715Z,99246.16
2023-01-01T17:04:23.153Z,99244.75
2023-01-01T17:06:51.417Z,99242.63
2023-01-01T17:09:18.477Z,99235.72
2023-01-01T17:11:45.763Z,99243.22
2023-01-01T17:14:13.528Z,99231.19
2023-01-01T17:16:41.103Z,99228.72
2023-01-01T17:19:15.103Z,99233.81
2023-01-01T17:21:43.841Z,99231.09
2023-01-01T17:24:11.881Z,99228.88
2023-01-01T17:26:39.313Z,99234.44
2023-01-01T17:29:07.140Z,99237.63
2023-01-01T17:31:34.613Z,99242.19
2023-01-01T17:34:02.326Z,99241.22
2023-01-01T17:36:31.763Z,99245.31
2023-01-01T17:38:58.505Z,99252.53
2023-01-01T17:41:26.207Z,99252.41
2023-01-01T17:43:54.082Z,99251.44
2023-01-01T17:46:24.081Z,99258.44
2023-01-01T17:48:51.761Z,99261.06
2023-01-01T17:51:20.091Z,99262.09
2023-01-01T17:53:49.523Z,99264.88
2023-01-01T17:56:18.621Z,99258.50
2023-01-01T17:58:46.875Z,99244.84
2023-01-01T18:01:27.892Z,99236.81
2023-01-01T18:03:57.403Z,99242.41
2023-01-01T18:06:25.297Z,99275.69
2023-01-01T18:08:57.553Z,99292.41
2023-01-01T18:11:26.450Z,99316.13
2023-01-01T18:13:53.727Z,99306.41
2023-01-01T18:16:21.639Z,99295.50
2023-01-01T18:18:48.830Z,99300.81
2023-01-01T18:21:18.707Z,99295.81
2023-01-01T18:23:46.561Z,99303.41
2023-01-01T18:26:15.022Z,99296.13
2023-01-01T18:28:43.027Z,99313.72
2023-01-01T18:31:12.745Z,99307.63
2023-01-01T18:33:41.121Z,99301.97
2023-01-01T18:36:10.855Z,99301.81
2023-01-01T18:38:38.394Z,99290.78
2023-01-01T18:41:24.021Z,99296.03
2023-01-01T18:43:51.860Z,99298.03
2023-01-01T18:46:20.194Z,99306.53
2023-01-01T18:48:47.968Z,99301.75
2023-01-01T18:51:22.348Z,99312.44
2023-01-01T18:53:51.547Z,99311.88
2023-01-01T18:56:20.405Z,99309.59
2023-01-01T18:58:47.828Z,99317.94
2023-01-01T19:01:17.903Z,99320.16
2023-01-01T19:03:48.456Z,99313.13
2023-01-01T19:06:26.912Z,99317.06
2023-01-01T19:09:02.865Z,99307.13
2023-01-01T19:11:32.932Z,99304.63
2023-01-01T19:14:12.625Z,99296.78
2023-01-01T19:16:40.141Z,99300.84
2023-01-01T19:19:16.670Z,99301.28
2023-01-01T19:21:51.041Z,99304.03
2023-01-01T19:24:26.863Z,99300.69
2023-01-01T19:27:00.266Z,99301.91
2023-01-01T19:29:30.756Z,99295.06
2023-01-01T19:31:58.791Z,99301.28
2023-01-01T19:34:26.377Z,99298.94
2023-01-01T19:36:54.233Z,99304.34
2023-01-01T19:39:21.369Z,99296.75
2023-01-01T19:41:48.571Z,99300.63
2023-01-01T19:44:24.530Z,99312.22
2023-01-01T19:46:52.406Z,99310.31
2023-01-01T19:49:20.140Z,99317.69
2023-01-01T19:51:47.455Z,99324.97
2023-01-01T19:54:14.957Z,99318.13
2023-01-01T19:56:41.732Z,99317.53
2023-01-01T19:59:08.481Z,99309.44
2023-01-01T20:01:37.212Z,99311.22
2023-01-01T20:04:04.737Z,99307.34
2023-01-01T20:06:32.388Z,99304.00
2023-01-01T20:08:59.882Z,99295.28
2023-01-01T20:11:27.607Z,99298.47
2023-01-01T20:13:55.334Z,99300.13
2023-01-01T20:16:22.105Z,99306.69
2023-01-01T20:18:51.333Z,99298.38
2023-01-01T20:21:25.662Z,99292.34
2023-01-01T20:23:54.226Z,99293.38
2023-01-01T20:26:21.098Z,99290.56
2023-01-01T20:28:48.414Z,99299.00
2023-01-01T20:31:15.267Z,99300.59
2023-01-01T20:33:42.464Z,99301.34
2023-01-01T20:36:10.661Z,99309.63
2023-01-01T20:38:40.338Z,99310.53
2023-01-01T20:41:08.122Z,99315.81
2023-01-01T20:43:35.551Z,99318.56
2023-01-01T20:46:02.923Z,99338.06
2023-01-01T20:48:30.106Z,99326.38
2023-01-01T20:50:57.370Z,99324.91
2023-01-01T20:53:26.174Z,99320.44
2023-01-01T20:55:53.723Z,99311.94
2023-01-01T20:58:21.198Z,99298.63
2023-01-01T21:00:48.569Z,99294.88
2023-01-01T21:03:16.410Z,99300.53
2023-01-01T21:05:43.790Z,99305.91
2023-01-01T21:08:12.139Z,99315.00
2023-01-01T21:10:41.242Z,99311.91
2023-01-01T21:13:08.434Z,99311.59
2023-01-01T21:15:35.961Z,99312.97
2023-01-01T21:18:11.227Z,99315.22
2023-01-01T21:20:43.597Z,99317.22
2023-01-01T21:23:15.639Z,99320.41
2023-01-01T21:25:51.704Z,99321.09
2023-01-01T21:28:20.136Z,99323.44
2023-01-01T21:30:50.637Z,99314.84
2023-01-01T21:33:25.908Z,99323.91
2023-01-01T21:35:53.408Z,99325.47
2023-01-01T21:38:24.995Z,99320.69
2023-01-01T21:40:55.765Z,99323.66
2023-01-01T21:43:34.516Z,99312.19
2023-01-01T21:46:28.622Z,99317.13
2023-01-01T21:48:58.756Z,99316.91
2023-01-01T21:51:28.191Z,99309.25
2023-01-01T21:54:17.165Z,99312.81
2023-01-01T21:56:52.308Z,99324.19
2023-01-01T21:59:25.024Z,99328.91
2023-01-01T22:01:54.518Z,99325.34
2023-01-01T22:04:24.634Z,99327.84
2023-01-01T22:06:55.150Z,99344.31
2023-01-01T22:09:23.824Z,99356.66
2023-01-01T22:11:57.967Z,99372.59
2023-01-01T22:14:27.852Z,99366.84
2023-01-01T22:16:56.133Z,99367.16
2023-01-01T22:19:28.139Z,99357.28
2023-01-01T22:21:55.707Z,99344.16
2023-01-01T22:24:31.483Z,99330.34
2023-01-01T22:27:18.233Z,99321.53
2023-01-01T22:29:46.649Z,99308.09
2023-01-01T22:32:18.890Z,99312.22
2023-01-01T22:34:46.337Z,99318.34
2023-01-01T22:37:18.946Z,99305.97
2023-01-01T22:39:46.427Z,99319.94
2023-01-01T22:42:18.183Z,99324.09
2023-01-01T22:44:53.975Z,99336.34
2023-01-01T22:47:21.669Z,99330.88
2023-01-01T22:49:51.187Z,99341.19
2023-01-01T22:52:18.807Z,99349.16
2023-01-01T22:54:46.062Z,99344.16
2023-01-01T22:57:14.081Z,99358.03
2023-01-01T22:59:41.534Z,99366.78
2023-01-01T23:02:08.926Z,99383.28
2023-01-01T23:04:36.287Z,99378.16
2023-01-01T23:07:05.145Z,99379.53
2023-01-01T23:09:33.175Z,99393.72
2023-01-01T23:12:01.290Z,99405.16
2023-01-01T23:14:34.346Z,99395.44
2023-01-01T23:17:05.767Z,99378.56
2023-01-01T23:19:33.197Z,99367.47
2023-01-01T23:22:02.008Z,99369.81
2023-01-01T23:24:31.239Z,99370.72
2023-01-01T23:27:00.803Z,99371.56
2023-01-01T23:29:32.140Z,99366.56
2023-01-01T23:32:00.194Z,99364.59
2023-01-01T23:34:28.320Z,99362.66
2023-01-01T23:36:56.318Z,99367.06
2023-01-01T23:39:23.500Z,99363.22
2023-01-01T23:41:51.680Z,99372.75
2023-01-01T23:44:19.115Z,99378.50
2023-01-01T23:46:48.156Z,99367.63
2023-01-01T23:49:16.214Z,99362.88
2023-01-01T23:51:43.561Z,99361.59
2023-01-01T23:54:10.884Z,99361.50
2023-01-01T23:56:38.364Z,99366.31
2023-01-01T23:59:05.668Z,99363.22
